createdAt,value
2023-04-02T00:01:48.605Z,11.39
2023-04-02T00:05:30.632Z,11.35
2023-04-02T00:08:44.032Z,11.29
2023-04-02T00:11:54.971Z,11.23
2023-04-02T00:14:58.204Z,11.27
2023-04-02T00:18:02.692Z,11.26
2023-04-02T00:21:12.564Z,11.25
2023-04-02T00:24:17.715Z,11.20
2023-04-02T00:27:19.599Z,11.17
2023-04-02T00:30:22.752Z,11.29
2023-04-02T00:33:28.958Z,11.32
2023-04-02T00:36:34.337Z,11.28
2023-04-02T00:39:41.595Z,11.27
2023-04-02T00:42:44.925Z,11.21
2023-04-02T00:45:51.226Z,11.16
2023-04-02T00:48:59.632Z,11.17
2023-04-02T00:52:04.701Z,11.10
2023-04-02T00:55:12.669Z,11.06
2023-04-02T00:58:23.218Z,11.03
2023-04-02T01:01:27.616Z,10.84
2023-04-02T01:04:34.669Z,10.86
2023-04-02T01:07:51.603Z,10.75
2023-04-02T01:11:03.943Z,10.69
2023-04-02T01:14:15.144Z,10.64
2023-04-02T01:17:28.443Z,10.68
2023-04-02T01:21:06.611Z,10.69
2023-04-02T01:24:12.380Z,10.71
2023-04-02T01:27:16.590Z,10.71
2023-04-02T01:30:21.316Z,10.70
2023-04-02T01:33:25.057Z,10.71
2023-04-02T01:36:36.965Z,10.69
2023-04-02T01:39:52.335Z,10.71
2023-04-02T01:43:04.322Z,10.80
2023-04-02T01:46:25.917Z,10.82
2023-04-02T01:49:28.616Z,10.83
2023-04-02T01:52:38.424Z,10.81
2023-04-02T01:55:43.332Z,10.84
2023-04-02T01:58:46.496Z,10.88
2023-04-02T02:01:57.258Z,10.90
2023-04-02T02:04:59.241Z,11.01
2023-04-02T02:08:02.921Z,11.03
2023-04-02T02:11:06.119Z,11.09
2023-04-02T02:14:15.038Z,10.76
2023-04-02T02:17:24.277Z,10.93
2023-04-02T02:20:28.261Z,10.99
2023-04-02T02:23:31.081Z,10.80
2023-04-02T02:26:36.063Z,10.91
2023-04-02T02:29:41.114Z,10.92
2023-04-02T02:32:54.542Z,10.93
2023-04-02T02:36:00.799Z,10.84
2023-04-02T02:39:11.038Z,10.86
2023-04-02T02:42:19.870Z,10.87
2023-04-02T02:45:25.641Z,10.86
2023-04-02T02:48:34.330Z,10.86
2023-04-02T02:51:44.068Z,10.86
2023-04-02T02:54:49.837Z,10.86
2023-04-02T02:57:55.722Z,10.89
2023-04-02T03:00:58.436Z,10.89
2023-04-02T03:04:03.310Z,10.84
2023-04-02T03:07:09.072Z,10.88
2023-04-02T03:10:14.930Z,10.87
2023-04-02T03:13:24.422Z,10.85
2023-04-02T03:16:31.387Z,10.75
2023-04-02T03:19:42.261Z,10.85
2023-04-02T03:22:50.780Z,10.83
2023-04-02T03:26:00.014Z,10.81
2023-04-02T03:29:08.501Z,10.88
2023-04-02T03:32:17.058Z,10.86
2023-04-02T03:35:27.559Z,10.66
2023-04-02T03:38:32.933Z,10.89
2023-04-02T03:41:45.057Z,10.93
2023-04-02T03:44:49.704Z,10.93
2023-04-02T03:47:56.232Z,10.95
2023-04-02T03:51:06.406Z,10.91
2023-04-02T03:54:13.903Z,10.94
2023-04-02T03:57:25.652Z,10.93
2023-04-02T04:00:35.439Z,10.99
2023-04-02T04:03:41.892Z,10.94
2023-04-02T04:06:49.400Z,11.00
2023-04-02T04:09:52.264Z,11.05
2023-04-02T04:12:57.578Z,11.02
2023-04-02T04:16:03.484Z,11.04
2023-04-02T04:19:10.994Z,11.07
2023-04-02T04:22:19.156Z,11.05
2023-04-02T04:25:29.780Z,11.03
2023-04-02T04:28:39.082Z,10.98
2023-04-02T04:31:47.573Z,11.00
2023-04-02T04:34:56.704Z,10.99
2023-04-02T04:38:05.302Z,10.96
2023-04-02T04:41:13.427Z,10.88
2023-04-02T04:44:20.609Z,11.01
2023-04-02T04:47:31.167Z,11.01
2023-04-02T04:50:37.848Z,11.15
2023-04-02T04:53:47.511Z,11.20
2023-04-02T04:56:54.798Z,11.24
2023-04-02T05:00:07.207Z,11.32
2023-04-02T05:03:17.692Z,11.41
2023-04-02T05:06:31.977Z,11.51
2023-04-02T05:09:40.477Z,11.57
2023-04-02T05:12:49.495Z,11.64
2023-04-02T05:16:02.237Z,11.69
2023-04-02T05:19:09.178Z,11.74
2023-04-02T05:22:24.357Z,11.86
2023-04-02T05:25:29.881Z,11.90
2023-04-02T05:28:38.688Z,11.99
2023-04-02T05:31:45.003Z,12.10
2023-04-02T05:34:52.891Z,12.20
2023-04-02T05:37:54.965Z,12.31
2023-04-02T05:41:04.043Z,12.36
2023-04-02T05:44:10.621Z,12.45
2023-04-02T05:47:14.846Z,12.61
2023-04-02T05:50:25.242Z,12.58
2023-04-02T05:53:32.172Z,12.27
2023-04-02T05:56:41.342Z,12.54
2023-04-02T05:59:47.438Z,12.57
2023-04-02T06:02:56.592Z,12.64
2023-04-02T06:06:04.325Z,12.67
2023-04-02T06:09:11.587Z,12.55
2023-04-02T06:12:27.930Z,12.65
2023-04-02T06:15:31.109Z,12.69
2023-04-02T06:18:35.788Z,12.71
2023-04-02T06:21:44.023Z,12.86
2023-04-02T06:24:50.575Z,13.09
2023-04-02T06:27:56.818Z,13.18
2023-04-02T06:31:03.203Z,13.36
2023-04-02T06:34:07.779Z,13.49
2023-04-02T06:37:21.357Z,13.44
2023-04-02T06:40:35.665Z,13.34
2023-04-02T06:43:44.741Z,13.25
2023-04-02T06:46:51.105Z,13.20
2023-04-02T06:50:00.793Z,13.24
2023-04-02T06:53:06.478Z,13.11
2023-04-02T06:56:13.292Z,13.27
2023-04-02T06:59:17.016Z,13.36
2023-04-02T07:02:29.167Z,13.37
2023-04-02T07:05:31.646Z,13.36
2023-04-02T07:08:34.253Z,13.45
2023-04-02T07:11:36.447Z,13.50
2023-04-02T07:14:39.691Z,13.56
2023-04-02T07:17:41.585Z,13.57
2023-04-02T07:20:43.490Z,13.58
2023-04-02T07:23:46.401Z,13.65
2023-04-02T07:26:48.361Z,13.61
2023-04-02T07:29:51.627Z,13.71
2023-04-02T07:32:54.264Z,13.67
2023-04-02T07:35:57.437Z,13.62
2023-04-02T07:39:00.182Z,13.68
2023-04-02T07:42:02.409Z,13.72
2023-04-02T07:45:06.853Z,13.83
2023-04-02T07:48:10.972Z,13.75
2023-04-02T07:51:18.634Z,13.84
2023-04-02T07:54:21.360Z,13.93
2023-04-02T07:57:23.295Z,13.91
2023-04-02T08:00:28.497Z,13.91
2023-04-02T08:03:30.466Z,12.51
2023-04-02T08:06:33.116Z,12.16
2023-04-02T08:09:34.900Z,12.05
2023-04-02T08:12:36.951Z,12.13
2023-04-02T08:15:40.732Z,12.13
2023-04-02T08:18:42.700Z,12.14
2023-04-02T08:21:45.664Z,12.11
2023-04-02T08:24:47.529Z,12.41
2023-04-02T08:27:50.646Z,12.67
2023-04-02T08:30:53.915Z,12.52
2023-04-02T08:33:57.065Z,13.20
2023-04-02T08:36:59.178Z,13.83
2023-04-02T08:40:01.973Z,14.17
2023-04-02T08:43:31.114Z,14.54
2023-04-02T08:46:43.816Z,14.65
2023-04-02T08:49:53.873Z,14.82
2023-04-02T08:52:57.044Z,14.80
2023-04-02T08:56:06.155Z,14.91
2023-04-02T08:59:18.460Z,14.94
2023-04-02T09:02:32.107Z,14.31
2023-04-02T09:05:39.870Z,13.64
2023-04-02T09:08:44.210Z,13.25
2023-04-02T09:11:52.698Z,13.13
2023-04-02T09:15:06.242Z,13.18
2023-04-02T09:18:15.636Z,13.10
2023-04-02T09:21:34.692Z,13.05
2023-04-02T09:24:37.884Z,12.96
2023-04-02T09:27:39.747Z,12.89
2023-04-02T09:30:57.291Z,13.08
2023-04-02T09:34:01.383Z,13.14
2023-04-02T09:37:08.443Z,13.27
2023-04-02T09:40:19.223Z,13.45
2023-04-02T09:43:22.717Z,13.43
2023-04-02T09:46:26.028Z,13.34
2023-04-02T09:49:32.630Z,13.53
2023-04-02T09:52:34.517Z,13.54
2023-04-02T09:55:37.266Z,13.57
2023-04-02T09:58:39.622Z,13.54
2023-04-02T10:01:43.892Z,13.51
2023-04-02T10:04:49.669Z,13.57
2023-04-02T10:07:55.570Z,13.71
2023-04-02T10:11:00.759Z,13.73
2023-04-02T10:14:06.229Z,14.00
2023-04-02T10:17:14.667Z,14.26
2023-04-02T10:20:23.035Z,14.46
2023-04-02T10:23:29.636Z,14.76
2023-04-02T10:26:55.626Z,14.52
2023-04-02T10:30:16.033Z,14.63
2023-04-02T10:33:22.225Z,14.43
2023-04-02T10:36:39.298Z,14.42
2023-04-02T10:39:44.335Z,14.73
2023-04-02T10:42:53.214Z,14.56
2023-04-02T10:45:59.437Z,15.08
2023-04-02T10:49:11.838Z,15.66
2023-04-02T10:52:21.280Z,16.02
2023-04-02T10:55:28.295Z,15.83
2023-04-02T10:58:34.499Z,15.82
2023-04-02T11:01:37.857Z,15.53
2023-04-02T11:04:45.469Z,15.67
2023-04-02T11:08:00.840Z,15.65
2023-04-02T11:11:10.764Z,15.55
2023-04-02T11:14:17.611Z,15.35
2023-04-02T11:17:20.216Z,15.95
2023-04-02T11:20:56.289Z,16.23
2023-04-02T11:24:01.211Z,16.04
2023-04-02T11:27:14.955Z,15.90
2023-04-02T11:30:23.147Z,16.18
2023-04-02T11:33:43.146Z,16.12
2023-04-02T11:37:06.678Z,15.63
2023-04-02T11:40:38.516Z,15.60
2023-04-02T11:43:50.860Z,15.76
2023-04-02T11:47:17.788Z,16.20
2023-04-02T11:50:30.836Z,16.30
2023-04-02T11:53:34.922Z,16.22
2023-04-02T11:56:46.650Z,16.27
2023-04-02T11:59:55.120Z,16.15
2023-04-02T12:03:16.282Z,16.39
2023-04-02T12:06:27.149Z,16.62
2023-04-02T12:09:32.326Z,16.32
2023-04-02T12:12:38.394Z,16.43
2023-04-02T12:15:46.571Z,16.62
2023-04-02T12:18:54.069Z,16.75
2023-04-02T12:21:56.634Z,16.66
2023-04-02T12:25:01.161Z,16.27
2023-04-02T12:28:14.607Z,16.50
2023-04-02T12:31:21.901Z,16.52
2023-04-02T12:34:26.604Z,16.58
2023-04-02T12:37:29.920Z,16.05
2023-04-02T12:40:32.425Z,16.10
2023-04-02T12:43:35.860Z,16.44
2023-04-02T12:46:40.042Z,16.78
2023-04-02T12:49:44.643Z,16.29
2023-04-02T12:52:50.136Z,16.43
2023-04-02T12:55:53.669Z,16.49
2023-04-02T12:58:57.280Z,16.68
2023-04-02T13:02:02.740Z,16.79
2023-04-02T13:05:04.530Z,16.83
2023-04-02T13:08:16.966Z,16.54
2023-04-02T13:11:19.545Z,16.37
2023-04-02T13:14:23.459Z,16.56
2023-04-02T13:17:42.496Z,16.91
2023-04-02T13:20:56.488Z,16.94
2023-04-02T13:23:59.611Z,17.15
2023-04-02T13:27:03.452Z,17.08
2023-04-02T13:30:10.390Z,16.85
2023-04-02T13:33:15.450Z,16.99
2023-04-02T13:36:17.351Z,17.16
2023-04-02T13:39:20.832Z,17.05
2023-04-02T13:42:22.879Z,17.54
2023-04-02T13:45:27.970Z,17.39
2023-04-02T13:48:31.625Z,17.07
2023-04-02T13:51:37.528Z,17.08
2023-04-02T13:54:44.045Z,17.27
2023-04-02T13:57:47.431Z,17.13
2023-04-02T14:00:51.183Z,17.02
2023-04-02T14:03:56.912Z,16.92
2023-04-02T14:07:21.830Z,17.09
2023-04-02T14:10:36.965Z,17.08
2023-04-02T14:14:19.086Z,17.00
2023-04-02T14:17:31.093Z,16.62
2023-04-02T14:20:45.835Z,16.90
2023-04-02T14:24:04.454Z,15.97
2023-04-02T14:27:18.638Z,15.52
2023-04-02T14:30:28.773Z,15.58
2023-04-02T14:33:39.012Z,15.35
2023-04-02T14:36:51.451Z,15.18
2023-04-02T14:40:04.402Z,14.56
2023-04-02T14:43:11.699Z,14.09
2023-04-02T14:46:14.915Z,13.78
2023-04-02T14:49:25.034Z,13.19
2023-04-02T14:52:35.356Z,12.51
2023-04-02T14:55:42.856Z,11.65
2023-04-02T14:58:51.266Z,11.33
2023-04-02T15:01:59.429Z,11.36
2023-04-02T15:05:05.878Z,11.51
2023-04-02T15:08:18.338Z,10.77
2023-04-02T15:11:26.595Z,10.62
2023-04-02T15:14:35.893Z,10.48
2023-04-02T15:17:38.837Z,10.64
2023-04-02T15:20:53.091Z,10.51
2023-04-02T15:24:06.301Z,10.61
2023-04-02T15:27:25.362Z,10.80
2023-04-02T15:30:35.710Z,10.52
2023-04-02T15:33:44.407Z,10.48
2023-04-02T15:37:01.929Z,10.74
2023-04-02T15:40:21.057Z,10.80
2023-04-02T15:43:29.697Z,10.85
2023-04-02T15:46:43.029Z,10.96
2023-04-02T15:49:55.321Z,11.13
2023-04-02T15:53:08.242Z,11.15
2023-04-02T15:56:25.210Z,11.04
2023-04-02T15:59:49.150Z,11.36
2023-04-02T16:03:24.092Z,11.59
2023-04-02T16:06:28.603Z,11.78
2023-04-02T16:09:44.637Z,11.80
2023-04-02T16:12:53.912Z,11.84
2023-04-02T16:16:04.724Z,11.77
2023-04-02T16:19:16.641Z,11.81
2023-04-02T16:22:26.639Z,11.78
2023-04-02T16:25:36.706Z,11.69
2023-04-02T16:28:49.673Z,11.72
2023-04-02T16:32:02.193Z,11.64
2023-04-02T16:38:44.149Z,11.35
2023-04-02T16:41:59.993Z,11.40
2023-04-02T16:45:19.582Z,11.20
2023-04-02T16:48:33.858Z,10.90
2023-04-02T16:51:44.856Z,10.87
2023-04-02T16:54:59.373Z,10.75
2023-04-02T16:58:18.517Z,10.80
2023-04-02T17:01:33.106Z,10.69
2023-04-02T17:04:57.246Z,10.53
2023-04-02T17:08:17.004Z,10.50
2023-04-02T17:11:25.160Z,10.45
2023-04-02T17:14:35.158Z,10.37
2023-04-02T17:17:42.256Z,10.22
2023-04-02T17:20:46.677Z,10.38
2023-04-02T17:23:56.295Z,10.26
2023-04-02T17:27:04.400Z,10.22
2023-04-02T17:30:17.061Z,9.95
2023-04-02T17:33:22.758Z,10.01
2023-04-02T17:36:33.787Z,9.81
2023-04-02T17:39:47.726Z,9.71
2023-04-02T17:42:58.917Z,9.71
2023-04-02T17:46:12.141Z,9.55
2023-04-02T17:49:28.505Z,9.60
2023-04-02T17:52:39.489Z,9.31
2023-04-02T17:55:54.247Z,9.29
2023-04-02T17:59:30.516Z,9.22
2023-04-02T18:02:46.790Z,9.15
2023-04-02T18:05:57.594Z,8.89
2023-04-02T18:09:19.845Z,8.98
2023-04-02T18:12:33.511Z,8.97
2023-04-02T18:15:46.205Z,8.93
2023-04-02T18:19:00.278Z,8.91
2023-04-02T18:22:14.072Z,8.73
2023-04-02T18:25:35.729Z,8.73
2023-04-02T18:28:54.025Z,8.66
2023-04-02T18:32:05.355Z,8.77
2023-04-02T18:35:21.960Z,8.71
2023-04-02T18:38:34.024Z,8.73
2023-04-02T18:41:50.793Z,8.75
2023-04-02T18:45:05.059Z,8.75
2023-04-02T18:48:26.924Z,8.86
2023-04-02T18:51:36.277Z,8.79
2023-04-02T18:54:47.334Z,8.58
2023-04-02T18:57:54.714Z,8.56
2023-04-02T19:00:59.694Z,8.13
2023-04-02T19:04:07.104Z,8.35
2023-04-02T19:07:15.037Z,8.19
2023-04-02T19:10:30.772Z,8.20
2023-04-02T19:13:34.844Z,8.14
2023-04-02T19:17:01.048Z,8.00
2023-04-02T19:20:17.964Z,7.90
2023-04-02T19:23:39.291Z,7.76
2023-04-02T19:26:51.406Z,7.65
2023-04-02T19:30:04.419Z,7.57
2023-04-02T19:33:20.062Z,7.45
2023-04-02T19:36:41.636Z,7.38
2023-04-02T19:40:05.543Z,7.39
2023-04-02T19:43:12.518Z,7.25
2023-04-02T19:46:16.411Z,7.33
2023-04-02T19:49:29.709Z,7.31
2023-04-02T19:52:34.836Z,7.37
2023-04-02T19:55:38.239Z,7.30
2023-04-02T19:58:42.995Z,7.35
2023-04-02T20:01:47.194Z,7.46
2023-04-02T20:04:53.794Z,8.11
2023-04-02T20:07:58.035Z,8.64
2023-04-02T20:11:01.547Z,8.95
2023-04-02T20:14:07.194Z,8.96
2023-04-02T20:17:09.927Z,8.62
2023-04-02T20:20:16.333Z,8.38
2023-04-02T20:23:20.694Z,8.25
2023-04-02T20:26:24.026Z,8.26
2023-04-02T20:29:30.977Z,8.18
2023-04-02T20:32:37.967Z,8.15
2023-04-02T20:35:41.914Z,8.15
2023-04-02T20:38:45.937Z,8.17
2023-04-02T20:41:48.660Z,8.20
2023-04-02T20:44:51.946Z,8.07
2023-04-02T20:47:53.916Z,7.93
2023-04-02T20:54:35.105Z,8.02
2023-04-02T20:57:37.230Z,8.08
2023-04-02T21:00:42.226Z,8.14
2023-04-02T21:03:44.339Z,8.16
2023-04-02T21:06:47.217Z,8.13
2023-04-02T21:09:49.148Z,8.18
2023-04-02T21:12:51.178Z,8.08
2023-04-02T21:15:54.771Z,8.05
2023-04-02T21:18:59.463Z,8.12
2023-04-02T21:22:01.477Z,8.13
2023-04-02T21:25:03.393Z,8.15
2023-04-02T21:28:06.489Z,8.16
2023-04-02T21:31:12.063Z,8.15
2023-04-02T21:34:15.756Z,8.17
2023-04-02T21:37:17.672Z,8.13
2023-04-02T21:40:19.989Z,8.09
2023-04-02T21:43:22.002Z,8.07
2023-04-02T21:46:27.177Z,8.01
2023-04-02T21:49:30.032Z,7.95
2023-04-02T21:52:32.507Z,7.98
2023-04-02T21:55:34.325Z,7.98
2023-04-02T21:58:37.032Z,7.77
2023-04-02T22:01:41.988Z,7.89
2023-04-02T22:04:43.991Z,7.93
2023-04-02T22:07:45.848Z,7.86
2023-04-02T22:10:47.682Z,7.83
2023-04-02T22:13:50.877Z,7.85
2023-04-02T22:16:54.307Z,7.79
2023-04-02T22:19:57.020Z,7.79
2023-04-02T22:22:58.850Z,7.79
2023-04-02T22:26:01.171Z,7.78
2023-04-02T22:29:03.483Z,7.79
2023-04-02T22:32:07.340Z,7.77
2023-04-02T22:35:09.806Z,7.72
2023-04-02T22:38:11.733Z,7.68
2023-04-02T22:41:16.368Z,7.63
2023-04-02T22:44:18.281Z,7.65
2023-04-02T22:47:22.251Z,7.65
2023-04-02T22:50:24.869Z,7.68
2023-04-02T22:53:26.731Z,7.65
2023-04-02T22:56:32.897Z,7.68
2023-04-02T22:59:34.730Z,7.67
2023-04-02T23:02:38.903Z,7.66
2023-04-02T23:05:42.534Z,7.67
2023-04-02T23:08:44.953Z,7.64
2023-04-02T23:11:46.813Z,7.65
2023-04-02T23:14:48.812Z,7.63
2023-04-02T23:17:52.053Z,7.56
2023-04-02T23:20:54.997Z,7.60
2023-04-02T23:23:57.017Z,7.63
2023-04-02T23:26:59.777Z,7.63
2023-04-02T23:30:01.621Z,7.64
2023-04-02T23:33:04.925Z,7.60
2023-04-02T23:36:09.578Z,7.45
2023-04-02T23:39:13.001Z,7.60
2023-04-02T23:42:16.061Z,7.60
2023-04-02T23:45:17.962Z,7.54
2023-04-02T23:48:22.103Z,7.46
2023-04-02T23:51:24.868Z,7.56
2023-04-02T23:54:28.149Z,7.50
2023-04-02T23:57:30.066Z,7.60
